createdAt,value
2023-02-01T00:01:01.085Z,12.40
2023-02-01T00:03:32.356Z,12.45
2023-02-01T00:06:12.085Z,12.52
2023-02-01T00:08:41.280Z,12.73
2023-02-01T00:11:12.409Z,12.43
2023-02-01T00:13:52.167Z,12.80
2023-02-01T00:19:04.580Z,11.93
2023-02-01T00:21:39.857Z,12.73
2023-02-01T00:24:09.917Z,11.95
2023-02-01T00:29:23.636Z,11.60
2023-02-01T00:31:53.943Z,11.40
2023-02-01T00:34:25.276Z,11.00
2023-02-01T00:36:54.773Z,9.25
2023-02-01T00:39:29.403Z,11.80
2023-02-01T00:41:58.612Z,12.50
2023-02-01T00:44:35.053Z,11.55
2023-02-01T00:47:09.288Z,12.07
2023-02-01T00:49:40.497Z,11.73
2023-02-01T00:52:09.658Z,12.15
2023-02-01T00:54:38.884Z,12.45
2023-02-01T00:57:13.928Z,11.95
2023-02-01T00:59:48.074Z,11.73
2023-02-01T01:02:17.314Z,11.93
2023-02-01T01:04:48.640Z,12.50
2023-02-01T01:07:22.955Z,11.15
2023-02-01T01:09:52.338Z,11.18
2023-02-01T01:12:21.546Z,10.60
2023-02-01T01:14:51.236Z,10.23
2023-02-01T01:17:21.477Z,11.35
2023-02-01T01:19:59.861Z,11.52
2023-02-01T01:22:29.876Z,11.52
2023-02-01T01:24:59.473Z,10.88
2023-02-01T01:27:28.700Z,10.80
2023-02-01T01:29:57.806Z,10.30
2023-02-01T01:32:27.121Z,9.95
2023-02-01T01:34:58.280Z,11.80
2023-02-01T01:37:27.462Z,11.82
2023-02-01T01:39:57.285Z,11.48
2023-02-01T01:42:26.747Z,11.02
2023-02-01T01:45:05.010Z,11.98
2023-02-01T01:47:50.054Z,12.02
2023-02-01T01:50:32.271Z,10.98
2023-02-01T01:53:05.340Z,11.13
2023-02-01T01:58:22.591Z,11.95
2023-02-01T02:00:52.014Z,11.38
2023-02-01T02:03:23.745Z,11.95
2023-02-01T02:06:08.379Z,11.40
2023-02-01T02:08:37.647Z,11.85
2023-02-01T02:11:11.046Z,12.10
2023-02-01T02:13:44.319Z,11.07
2023-02-01T02:17:00.191Z,11.50
2023-02-01T02:19:56.276Z,11.85
2023-02-01T02:22:57.505Z,11.68
2023-02-01T02:25:51.971Z,10.70
2023-02-01T02:28:49.419Z,11.57
2023-02-01T02:31:32.811Z,12.18
2023-02-01T02:34:14.568Z,12.77
2023-02-01T02:36:53.347Z,12.88
2023-02-01T02:39:33.928Z,12.80
2023-02-01T02:42:24.734Z,12.57
2023-02-01T02:45:18.969Z,12.48
2023-02-01T02:47:57.855Z,12.82
2023-02-01T02:53:57.048Z,12.52
2023-02-01T02:56:42.055Z,13.75
2023-02-01T02:59:27.160Z,12.02
2023-02-01T03:02:15.000Z,12.07
2023-02-01T03:04:45.591Z,12.63
2023-02-01T03:07:38.305Z,13.93
2023-02-01T03:10:12.947Z,13.45
2023-02-01T03:13:02.621Z,13.32
2023-02-01T03:15:38.863Z,13.40
2023-02-01T03:18:14.846Z,13.23
2023-02-01T03:20:47.648Z,13.40
2023-02-01T03:23:21.618Z,12.80
2023-02-01T03:25:53.633Z,13.82
2023-02-01T03:28:27.654Z,13.30
2023-02-01T03:30:57.900Z,13.25
2023-02-01T03:33:30.752Z,13.00
2023-02-01T03:36:10.500Z,12.88
2023-02-01T03:38:48.170Z,13.20
2023-02-01T03:41:25.850Z,12.88
2023-02-01T03:44:12.143Z,13.40
2023-02-01T03:46:45.284Z,13.73
2023-02-01T03:49:28.170Z,12.52
2023-02-01T03:51:59.554Z,13.38
2023-02-01T03:54:31.969Z,13.50
2023-02-01T03:57:09.616Z,13.07
2023-02-01T03:59:42.074Z,13.60
2023-02-01T04:02:11.615Z,13.23
2023-02-01T04:04:40.900Z,12.38
2023-02-01T04:07:17.600Z,11.55
2023-02-01T04:09:48.724Z,13.77
2023-02-01T04:12:17.922Z,12.80
2023-02-01T04:14:47.072Z,11.93
2023-02-01T04:17:16.147Z,12.38
2023-02-01T04:19:50.252Z,12.93
2023-02-01T04:22:19.610Z,12.50
2023-02-01T04:24:50.769Z,13.15
2023-02-01T04:27:26.475Z,12.27
2023-02-01T04:30:01.185Z,14.02
2023-02-01T04:32:30.310Z,13.40
2023-02-01T04:34:59.444Z,13.75
2023-02-01T04:37:29.799Z,14.27
2023-02-01T04:40:01.269Z,14.38
2023-02-01T04:42:30.753Z,15.23
2023-02-01T04:44:59.776Z,14.57
2023-02-01T04:47:34.098Z,14.15
2023-02-01T04:50:03.384Z,14.48
2023-02-01T04:52:32.464Z,15.20
2023-02-01T04:55:07.626Z,14.55
2023-02-01T04:57:41.806Z,15.73
2023-02-01T05:00:13.767Z,15.55
2023-02-01T05:02:42.880Z,14.88
2023-02-01T05:05:12.278Z,14.82
2023-02-01T05:07:41.579Z,15.63
2023-02-01T05:10:13.508Z,15.65
2023-02-01T05:12:55.584Z,15.38
2023-02-01T05:15:24.712Z,15.10
2023-02-01T05:17:53.782Z,15.80
2023-02-01T05:20:23.276Z,15.80
2023-02-01T05:22:52.875Z,16.65
2023-02-01T05:25:24.376Z,15.85
2023-02-01T05:27:53.580Z,15.93
2023-02-01T05:30:23.272Z,16.10
2023-02-01T05:32:53.601Z,13.82
2023-02-01T05:35:23.154Z,15.77
2023-02-01T05:37:52.171Z,16.33
2023-02-01T05:40:28.512Z,16.08
2023-02-01T05:42:57.606Z,17.52
2023-02-01T05:45:26.713Z,17.13
2023-02-01T05:48:01.952Z,15.57
2023-02-01T05:50:31.068Z,16.40
2023-02-01T05:53:00.982Z,17.52
2023-02-01T05:55:31.995Z,16.02
2023-02-01T05:58:08.891Z,17.40
2023-02-01T06:00:38.147Z,16.95
2023-02-01T06:03:08.055Z,15.70
2023-02-01T06:05:37.545Z,15.75
2023-02-01T06:08:13.021Z,16.50
2023-02-01T06:10:44.090Z,14.80
2023-02-01T06:13:15.940Z,16.33
2023-02-01T06:18:16.193Z,14.88
2023-02-01T06:20:50.529Z,14.93
2023-02-01T06:23:19.770Z,14.40
2023-02-01T06:25:50.860Z,15.68
2023-02-01T06:28:25.066Z,15.02
2023-02-01T06:30:54.425Z,15.27
2023-02-01T06:33:24.349Z,16.00
2023-02-01T06:36:01.610Z,15.10
2023-02-01T06:38:30.868Z,14.55
2023-02-01T06:41:02.909Z,14.93
2023-02-01T06:43:33.189Z,14.73
2023-02-01T06:46:03.672Z,14.38
2023-02-01T06:48:33.092Z,14.32
2023-02-01T06:51:02.197Z,14.50
2023-02-01T06:53:36.616Z,14.50
2023-02-01T06:56:13.323Z,15.15
2023-02-01T06:58:47.559Z,13.48
2023-02-01T07:01:17.033Z,14.35
2023-02-01T07:03:53.568Z,13.52
2023-02-01T07:06:22.757Z,14.07
2023-02-01T07:08:52.013Z,14.77
2023-02-01T07:11:28.199Z,14.93
2023-02-01T07:13:57.469Z,15.77
2023-02-01T07:16:26.703Z,14.65
2023-02-01T07:19:01.179Z,15.35
2023-02-01T07:21:30.736Z,13.90
2023-02-01T07:24:05.196Z,14.73
2023-02-01T07:26:36.245Z,14.55
2023-02-01T07:29:05.623Z,14.80
2023-02-01T07:31:34.781Z,14.80
2023-02-01T07:34:04.242Z,14.77
2023-02-01T07:36:34.917Z,13.70
2023-02-01T07:39:09.252Z,14.15
2023-02-01T07:41:41.182Z,14.73
2023-02-01T07:44:24.718Z,14.43
2023-02-01T07:46:54.008Z,14.13
2023-02-01T07:49:23.261Z,13.48
2023-02-01T07:51:52.880Z,13.05
2023-02-01T07:54:22.276Z,12.77
2023-02-01T07:56:58.711Z,13.00
2023-02-01T07:59:28.112Z,13.00
2023-02-01T08:01:55.244Z,13.88
2023-02-01T08:04:24.358Z,11.38
2023-02-01T08:06:53.440Z,12.73
2023-02-01T08:09:23.023Z,12.20
2023-02-01T08:11:52.146Z,12.27
2023-02-01T08:14:23.251Z,12.73
2023-02-01T08:16:52.529Z,12.25
2023-02-01T08:19:21.636Z,11.35
2023-02-01T08:21:50.962Z,11.70
2023-02-01T08:24:20.020Z,11.82
2023-02-01T08:26:49.773Z,11.82
2023-02-01T08:29:19.377Z,11.80
2023-02-01T08:31:51.275Z,12.32
2023-02-01T08:34:20.508Z,12.07
2023-02-01T08:36:49.645Z,11.43
2023-02-01T08:39:18.700Z,11.63
2023-02-01T08:42:09.404Z,12.00
2023-02-01T08:44:39.156Z,11.07
2023-02-01T08:47:10.215Z,11.68
2023-02-01T08:49:39.323Z,11.15
2023-02-01T08:52:15.760Z,11.70
2023-02-01T08:54:45.969Z,11.60
2023-02-01T08:57:15.426Z,11.95
2023-02-01T08:59:44.915Z,11.55
2023-02-01T09:02:19.508Z,12.73
2023-02-01T09:04:48.794Z,12.25
2023-02-01T09:07:18.326Z,12.75
2023-02-01T09:09:47.955Z,13.05
2023-02-01T09:12:17.907Z,13.73
2023-02-01T09:14:47.109Z,13.10
2023-02-01T09:17:16.429Z,14.23
2023-02-01T09:19:47.649Z,13.02
2023-02-01T09:24:57.926Z,13.02
2023-02-01T09:27:27.060Z,14.30
2023-02-01T09:29:56.299Z,14.02
2023-02-01T09:32:26.743Z,14.25
2023-02-01T09:34:57.881Z,14.82
2023-02-01T09:37:27.527Z,14.48
2023-02-01T09:39:56.685Z,14.32
2023-02-01T09:42:55.892Z,13.27
2023-02-01T09:45:34.011Z,13.93
2023-02-01T09:48:12.974Z,12.88
2023-02-01T09:50:48.461Z,13.48
2023-02-01T09:53:24.536Z,13.30
2023-02-01T09:55:57.373Z,12.38
2023-02-01T09:58:33.396Z,13.60
2023-02-01T10:01:05.772Z,13.15
2023-02-01T10:03:40.843Z,13.65
2023-02-01T10:06:30.257Z,13.52
2023-02-01T10:09:31.389Z,13.88
2023-02-01T10:12:30.809Z,14.38
2023-02-01T10:15:14.381Z,12.73
2023-02-01T10:17:57.272Z,13.80
2023-02-01T10:20:32.734Z,13.70
2023-02-01T10:23:31.513Z,13.50
2023-02-01T10:26:07.879Z,13.48
2023-02-01T10:28:46.634Z,13.00
2023-02-01T10:31:16.339Z,12.23
2023-02-01T10:33:49.620Z,13.45
2023-02-01T10:36:23.041Z,14.07
2023-02-01T10:38:54.272Z,12.68
2023-02-01T10:41:25.790Z,13.23
2023-02-01T10:43:57.881Z,13.05
2023-02-01T10:46:33.228Z,13.25
2023-02-01T10:49:07.035Z,13.82
2023-02-01T10:51:44.957Z,13.02
2023-02-01T10:54:21.041Z,13.00
2023-02-01T10:56:53.012Z,12.60
2023-02-01T11:01:59.522Z,13.48
2023-02-01T11:04:32.079Z,13.95
2023-02-01T11:07:10.231Z,14.55
2023-02-01T11:09:52.355Z,15.32
2023-02-01T11:12:30.915Z,16.02
2023-02-01T11:15:04.082Z,14.75
2023-02-01T11:17:43.313Z,14.55
2023-02-01T11:20:18.094Z,15.50
2023-02-01T11:23:01.070Z,16.10
2023-02-01T11:25:34.268Z,14.73
2023-02-01T11:28:04.471Z,16.13
2023-02-01T11:30:37.767Z,13.93
2023-02-01T11:33:17.980Z,14.05
2023-02-01T11:35:49.580Z,14.50
2023-02-01T11:38:30.765Z,14.98
2023-02-01T11:41:16.166Z,14.60
2023-02-01T11:43:57.048Z,14.38
2023-02-01T11:46:32.301Z,15.00
2023-02-01T11:49:27.497Z,15.05
2023-02-01T11:52:13.289Z,14.13
2023-02-01T11:54:59.978Z,13.68
2023-02-01T11:57:47.793Z,13.60
2023-02-01T12:00:47.209Z,12.25
2023-02-01T12:03:50.355Z,11.20
2023-02-01T12:06:31.590Z,12.43
2023-02-01T12:09:18.463Z,12.90
2023-02-01T12:11:56.777Z,13.02
2023-02-01T12:14:50.940Z,12.13
2023-02-01T12:17:45.286Z,11.35
2023-02-01T12:20:30.683Z,11.57
2023-02-01T12:23:23.929Z,11.20
2023-02-01T12:26:11.659Z,10.55
2023-02-01T12:29:11.729Z,10.82
2023-02-01T12:32:19.397Z,10.75
2023-02-01T12:35:04.747Z,11.15
2023-02-01T12:37:56.682Z,9.85
2023-02-01T12:40:44.413Z,9.23
2023-02-01T12:43:25.973Z,10.45
2023-02-01T12:45:59.999Z,10.45
2023-02-01T12:53:55.628Z,10.40
2023-02-01T12:56:29.436Z,9.65
2023-02-01T12:59:04.481Z,11.43
2023-02-01T13:01:38.374Z,10.85
2023-02-01T13:04:15.284Z,11.98
2023-02-01T13:06:55.257Z,11.90
2023-02-01T13:09:37.786Z,11.25
2023-02-01T13:12:13.245Z,12.18
2023-02-01T13:14:53.637Z,11.90
2023-02-01T13:20:06.376Z,12.68
2023-02-01T13:22:41.766Z,11.75
2023-02-01T13:25:17.811Z,11.70
2023-02-01T13:27:48.516Z,11.13
2023-02-01T13:30:24.118Z,11.73
2023-02-01T13:33:54.643Z,11.75
2023-02-01T13:36:42.295Z,10.88
2023-02-01T13:39:43.195Z,10.68
2023-02-01T13:42:21.708Z,10.80
2023-02-01T13:44:55.189Z,11.55
2023-02-01T13:47:33.145Z,11.98
2023-02-01T13:50:05.916Z,12.05
2023-02-01T13:52:47.513Z,11.35
2023-02-01T13:55:33.735Z,11.05
2023-02-01T13:58:22.564Z,11.23
2023-02-01T14:00:53.724Z,11.65
2023-02-01T14:03:51.873Z,11.40
2023-02-01T14:06:47.190Z,11.93
2023-02-01T14:09:22.205Z,11.07
2023-02-01T14:11:54.087Z,12.95
2023-02-01T14:14:50.953Z,10.80
2023-02-01T14:17:43.107Z,11.30
2023-02-01T14:21:01.962Z,11.60
2023-02-01T14:23:33.633Z,11.73
2023-02-01T14:26:20.532Z,11.80
2023-02-01T14:31:58.105Z,11.20
2023-02-01T14:34:38.283Z,10.68
2023-02-01T14:37:15.755Z,10.52
2023-02-01T14:40:03.823Z,11.68
2023-02-01T14:42:41.916Z,11.60
2023-02-01T14:45:43.975Z,11.10
2023-02-01T14:48:47.927Z,11.48
2023-02-01T14:51:32.055Z,10.93
2023-02-01T14:54:01.439Z,11.27
2023-02-01T14:56:31.011Z,10.80
2023-02-01T14:59:05.608Z,11.32
2023-02-01T15:01:38.265Z,10.65
2023-02-01T15:04:11.781Z,12.15
2023-02-01T15:06:45.308Z,11.93
2023-02-01T15:09:30.601Z,12.63
2023-02-01T15:12:02.523Z,12.63
2023-02-01T15:14:39.237Z,12.85
2023-02-01T15:17:22.082Z,12.90
2023-02-01T15:19:58.117Z,12.88
2023-02-01T15:22:35.464Z,13.80
2023-02-01T15:25:06.785Z,13.60
2023-02-01T15:27:36.429Z,13.70
2023-02-01T15:30:19.335Z,12.93
2023-02-01T15:32:48.873Z,14.20
2023-02-01T15:35:36.890Z,14.00
2023-02-01T15:38:24.503Z,13.30
2023-02-01T15:43:38.227Z,12.90
2023-02-01T15:46:15.406Z,12.95
2023-02-01T15:48:50.781Z,14.25
2023-02-01T15:51:23.345Z,13.68
2023-02-01T15:54:00.606Z,13.35
2023-02-01T15:56:33.050Z,12.82
2023-02-01T15:59:05.042Z,14.13
2023-02-01T16:04:19.951Z,12.98
2023-02-01T16:06:51.632Z,14.38
2023-02-01T16:09:24.986Z,15.18
2023-02-01T16:11:59.256Z,15.35
2023-02-01T16:14:29.214Z,15.77
2023-02-01T16:17:05.839Z,15.73
2023-02-01T16:19:35.415Z,15.05
2023-02-01T16:22:04.753Z,15.60
2023-02-01T16:24:40.861Z,15.45
2023-02-01T16:27:09.980Z,14.53
2023-02-01T16:29:39.757Z,16.25
2023-02-01T16:32:15.630Z,16.05
2023-02-01T16:34:50.718Z,15.23
2023-02-01T16:37:23.902Z,16.17
2023-02-01T16:39:55.059Z,16.00
2023-02-01T16:42:31.555Z,14.88
2023-02-01T16:45:06.540Z,16.85
2023-02-01T16:47:36.906Z,16.05
2023-02-01T16:50:17.496Z,16.13
2023-02-01T16:52:51.824Z,16.90
2023-02-01T16:55:29.770Z,16.33
2023-02-01T16:57:59.286Z,16.13
2023-02-01T17:00:31.563Z,15.80
2023-02-01T17:03:01.251Z,15.40
2023-02-01T17:05:36.894Z,15.88
2023-02-01T17:08:10.706Z,16.27
2023-02-01T17:10:41.918Z,16.02
2023-02-01T17:13:15.782Z,17.30
2023-02-01T17:15:56.333Z,16.48
2023-02-01T17:18:25.995Z,16.20
2023-02-01T17:20:55.174Z,16.50
2023-02-01T17:23:24.531Z,17.38
2023-02-01T17:25:55.659Z,15.85
2023-02-01T17:28:28.742Z,15.98
2023-02-01T17:33:39.494Z,16.52
2023-02-01T17:36:09.451Z,15.98
2023-02-01T17:38:41.023Z,15.70
2023-02-01T17:41:15.208Z,16.00
2023-02-01T17:43:50.440Z,16.23
2023-02-01T17:46:20.719Z,15.60
2023-02-01T17:48:49.961Z,14.98
2023-02-01T17:51:20.607Z,15.48
2023-02-01T17:53:55.139Z,16.67
2023-02-01T17:56:27.655Z,15.77
2023-02-01T17:58:58.234Z,16.98
2023-02-01T18:01:29.517Z,16.73
2023-02-01T18:04:03.956Z,16.40
2023-02-01T18:06:41.827Z,14.88
2023-02-01T18:09:11.165Z,15.40
2023-02-01T18:11:42.360Z,14.05
2023-02-01T18:14:16.741Z,13.88
2023-02-01T18:16:45.885Z,14.52
2023-02-01T18:19:16.256Z,15.20
2023-02-01T18:21:46.816Z,14.00
2023-02-01T18:24:18.248Z,14.43
2023-02-01T18:26:59.534Z,14.80
2023-02-01T18:29:28.857Z,14.20
2023-02-01T18:31:58.460Z,14.30
2023-02-01T18:34:32.695Z,14.50
2023-02-01T18:37:02.286Z,14.65
2023-02-01T18:39:31.493Z,15.07
2023-02-01T18:42:02.660Z,14.57
2023-02-01T18:44:34.812Z,15.57
2023-02-01T18:47:04.177Z,14.82
2023-02-01T18:49:33.283Z,14.45
2023-02-01T18:52:02.530Z,14.65
2023-02-01T18:54:32.014Z,14.70
2023-02-01T18:57:09.031Z,13.80
2023-02-01T18:59:43.332Z,12.85
2023-02-01T19:02:14.687Z,13.43
2023-02-01T19:04:44.368Z,12.70
2023-02-01T19:07:18.769Z,12.48
2023-02-01T19:09:48.281Z,12.63
2023-02-01T19:12:20.009Z,13.20
2023-02-01T19:14:54.314Z,14.32
2023-02-01T19:17:24.043Z,13.60
2023-02-01T19:19:53.717Z,13.77
2023-02-01T19:22:22.977Z,13.82
2023-02-01T19:24:54.470Z,14.90
2023-02-01T19:30:13.725Z,13.45
2023-02-01T19:32:48.089Z,13.18
2023-02-01T19:35:25.347Z,13.20
2023-02-01T19:38:01.255Z,15.38
2023-02-01T19:40:30.757Z,14.50
2023-02-01T19:45:43.087Z,14.77
2023-02-01T19:48:12.814Z,14.95
2023-02-01T19:50:42.404Z,14.63
2023-02-01T19:53:12.022Z,15.32
2023-02-01T19:55:45.507Z,14.43
2023-02-01T19:58:16.792Z,15.25
2023-02-01T20:00:45.273Z,14.45
2023-02-01T20:03:14.392Z,14.05
2023-02-01T20:05:43.688Z,14.55
2023-02-01T20:10:48.204Z,14.70
2023-02-01T20:13:20.042Z,13.98
2023-02-01T20:18:18.173Z,16.00
2023-02-01T20:20:47.407Z,15.63
2023-02-01T20:23:18.230Z,16.58
2023-02-01T20:25:48.249Z,15.52
2023-02-01T20:28:24.491Z,15.75
2023-02-01T20:30:54.629Z,16.35
2023-02-01T20:33:25.286Z,15.15
2023-02-01T20:35:54.476Z,15.98
2023-02-01T20:38:23.651Z,16.10
2023-02-01T20:40:52.899Z,16.08
2023-02-01T20:43:23.895Z,17.10
2023-02-01T20:45:58.402Z,16.40
2023-02-01T20:48:28.788Z,15.85
2023-02-01T20:50:58.553Z,16.30
2023-02-01T20:53:28.290Z,18.23
2023-02-01T20:55:59.106Z,17.75
2023-02-01T20:58:31.326Z,17.77
2023-02-01T21:01:00.622Z,17.52
2023-02-01T21:03:30.248Z,15.73
2023-02-01T21:06:01.182Z,16.80
2023-02-01T21:08:35.931Z,18.08
2023-02-01T21:11:07.537Z,17.92
2023-02-01T21:13:43.546Z,17.23
2023-02-01T21:16:15.342Z,16.55
2023-02-01T21:18:44.545Z,17.48
2023-02-01T21:21:18.405Z,16.80
2023-02-01T21:23:48.378Z,16.25
2023-02-01T21:26:21.315Z,16.85
2023-02-01T21:28:54.086Z,15.98
2023-02-01T21:31:25.361Z,16.65
2023-02-01T21:33:54.816Z,15.77
2023-02-01T21:36:24.648Z,16.85
2023-02-01T21:39:01.167Z,16.73
2023-02-01T21:41:48.456Z,16.75
2023-02-01T21:44:19.970Z,15.65
2023-02-01T21:46:49.357Z,16.60
2023-02-01T21:49:18.487Z,14.73
2023-02-01T21:51:50.095Z,15.18
2023-02-01T21:54:23.596Z,15.88
2023-02-01T21:56:52.839Z,15.63
2023-02-01T21:59:23.941Z,15.18
2023-02-01T22:04:27.693Z,15.65
2023-02-01T22:06:56.823Z,16.08
2023-02-01T22:09:31.075Z,15.07
2023-02-01T22:12:00.152Z,14.65
2023-02-01T22:14:33.237Z,14.70
2023-02-01T22:17:02.529Z,14.30
2023-02-01T22:19:42.006Z,15.13
2023-02-01T22:22:12.557Z,13.85
2023-02-01T22:24:41.667Z,14.93
2023-02-01T22:27:14.391Z,14.98
2023-02-01T22:29:58.234Z,14.90
2023-02-01T22:32:27.410Z,14.85
2023-02-01T22:34:59.148Z,15.10
2023-02-01T22:37:28.458Z,14.57
2023-02-01T22:39:57.763Z,14.40
2023-02-01T22:42:27.097Z,15.05
2023-02-01T22:45:04.138Z,14.70
2023-02-01T22:47:33.586Z,14.98
2023-02-01T22:50:02.767Z,14.55
2023-02-01T22:52:37.125Z,14.80
2023-02-01T22:55:07.083Z,15.05
2023-02-01T22:57:36.221Z,14.65
2023-02-01T23:00:10.053Z,15.10
2023-02-01T23:02:39.453Z,15.02
2023-02-01T23:05:09.094Z,15.30
2023-02-01T23:07:38.225Z,14.95
2023-02-01T23:10:16.285Z,15.63
2023-02-01T23:15:22.966Z,14.68
2023-02-01T23:17:52.382Z,15.43
2023-02-01T23:20:27.731Z,15.05
2023-02-01T23:22:57.107Z,15.65
2023-02-01T23:25:26.748Z,14.98
2023-02-01T23:28:01.817Z,15.93
2023-02-01T23:30:33.057Z,15.10
2023-02-01T23:33:02.318Z,14.88
2023-02-01T23:35:31.410Z,16.17
2023-02-01T23:38:00.483Z,17.50
2023-02-01T23:40:29.646Z,15.73
2023-02-01T23:43:11.576Z,15.80
2023-02-01T23:45:47.677Z,15.13
2023-02-01T23:48:16.980Z,15.40
2023-02-01T23:50:46.083Z,15.43
2023-02-01T23:53:15.225Z,15.80
2023-02-01T23:55:49.233Z,15.90
2023-02-01T23:58:18.385Z,15.75
